createdAt,value
2018-01-29T00:00:46.017Z,1.00
2018-01-29T00:03:14.375Z,0.90
2018-01-29T00:05:43.540Z,1.10
2018-01-29T00:08:11.905Z,1.27
2018-01-29T00:36:18.842Z,1.20
2018-01-29T00:38:47.252Z,1.00
2018-01-29T00:41:16.066Z,1.10
2018-01-29T00:43:45.564Z,1.13
2018-01-29T00:46:15.075Z,0.67
2018-01-29T00:48:44.403Z,1.23
2018-01-29T00:51:12.824Z,1.00
2018-01-29T00:53:41.192Z,0.90
2018-01-29T00:56:10.129Z,1.00
2018-01-29T00:58:39.120Z,1.07
2018-01-29T01:01:08.251Z,0.80
2018-01-29T01:03:38.149Z,0.77
2018-01-29T01:06:06.541Z,0.97
2018-01-29T01:08:34.904Z,0.73
2018-01-29T01:11:06.024Z,0.50
2018-01-29T01:13:35.151Z,0.90
2018-01-29T01:16:03.878Z,0.60
2018-01-29T01:18:32.283Z,0.87
2018-01-29T01:38:06.123Z,0.50
2018-01-29T01:40:34.487Z,0.70
2018-01-29T01:43:02.851Z,0.70
2018-01-29T01:45:31.999Z,0.63
2018-01-29T01:48:00.384Z,0.50
2018-01-29T01:50:29.557Z,0.70
2018-01-29T01:52:57.933Z,1.17
2018-01-29T01:55:26.292Z,0.90
2018-01-29T01:57:55.433Z,0.70
2018-01-29T02:00:23.816Z,0.60
2018-01-29T02:02:52.547Z,0.60
2018-01-29T02:05:21.676Z,0.50
2018-01-29T02:07:50.036Z,0.60
2018-01-29T02:10:17.744Z,0.67
2018-01-29T02:12:45.574Z,0.80
2018-01-29T02:15:13.951Z,0.60
2018-01-29T02:17:42.330Z,0.97
2018-01-29T02:20:10.041Z,0.70
2018-01-29T02:22:38.402Z,0.70
2018-01-29T02:25:06.776Z,0.80
2018-01-29T02:27:35.134Z,0.70
2018-01-29T02:30:03.451Z,0.70
2018-01-29T02:32:31.821Z,0.60
2018-01-29T02:35:00.213Z,0.80
2018-01-29T02:37:28.405Z,0.63
2018-01-29T02:39:57.532Z,0.90
2018-01-29T02:42:25.900Z,0.97
2018-01-29T02:44:54.261Z,0.80
2018-01-29T02:47:23.409Z,0.90
2018-01-29T02:49:51.580Z,0.73
2018-01-29T02:52:19.790Z,0.50
2018-01-29T02:54:48.407Z,0.40
2018-01-29T02:57:18.488Z,1.00
2018-01-29T02:59:46.663Z,0.50
2018-01-29T03:02:15.803Z,0.60
2018-01-29T03:04:44.183Z,0.40
2018-01-29T03:07:12.590Z,0.60
2018-01-29T03:09:41.118Z,0.70
2018-01-29T03:12:09.497Z,0.50
2018-01-29T03:14:37.916Z,0.30
2018-01-29T03:17:06.311Z,0.50
2018-01-29T03:19:34.504Z,0.63
2018-01-29T03:22:02.557Z,0.40
2018-01-29T03:24:32.073Z,0.90
2018-01-29T03:27:00.459Z,0.60
2018-01-29T03:29:28.828Z,0.40
2018-01-29T03:31:58.215Z,0.50
2018-01-29T03:34:26.578Z,0.87
2018-01-29T03:36:54.962Z,0.40
2018-01-29T03:39:25.233Z,0.60
2018-01-29T03:41:55.108Z,0.87
2018-01-29T03:44:23.477Z,0.50
2018-01-29T03:46:51.836Z,0.93
2018-01-29T03:49:20.210Z,0.97
2018-01-29T03:51:48.588Z,0.73
2018-01-29T03:54:16.954Z,0.53
2018-01-29T03:56:45.321Z,1.10
2018-01-29T03:59:14.461Z,1.10
2018-01-29T04:01:42.821Z,0.60
2018-01-29T04:04:11.189Z,1.10
2018-01-29T04:06:39.563Z,0.80
2018-01-29T04:09:08.716Z,0.80
2018-01-29T04:11:37.098Z,0.87
2018-01-29T04:14:05.468Z,1.10
2018-01-29T04:16:35.155Z,0.73
2018-01-29T04:19:04.795Z,0.70
2018-01-29T04:21:33.926Z,1.00
2018-01-29T04:24:02.297Z,1.40
2018-01-29T04:26:31.092Z,1.30
2018-01-29T04:28:59.454Z,0.90
2018-01-29T04:31:28.584Z,1.40
2018-01-29T04:33:56.970Z,1.07
2018-01-29T04:36:25.327Z,0.97
2018-01-29T04:38:53.689Z,1.20
2018-01-29T04:41:22.828Z,1.17
2018-01-29T04:43:51.195Z,1.70
2018-01-29T04:46:21.324Z,0.70
2018-01-29T04:48:49.364Z,1.30
2018-01-29T04:51:17.730Z,1.40
2018-01-29T04:53:46.683Z,1.73
2018-01-29T04:56:14.867Z,0.97
2018-01-29T04:58:43.219Z,0.90
2018-01-29T05:01:11.620Z,0.50
2018-01-29T05:03:40.031Z,1.17
2018-01-29T05:06:08.492Z,1.23
2018-01-29T05:08:36.896Z,1.47
2018-01-29T05:11:06.036Z,1.40
2018-01-29T05:13:34.718Z,1.20
2018-01-29T05:16:02.412Z,1.47
2018-01-29T05:18:30.791Z,1.20
2018-01-29T05:20:59.204Z,1.80
2018-01-29T05:23:27.558Z,1.00
2018-01-29T05:25:57.068Z,1.97
2018-01-29T05:28:26.189Z,1.87
2018-01-29T05:30:54.540Z,1.70
2018-01-29T05:33:23.700Z,1.00
2018-01-29T05:35:57.495Z,1.47
2018-01-29T05:38:28.320Z,2.07
2018-01-29T05:40:56.684Z,1.90
2018-01-29T05:43:25.079Z,1.60
2018-01-29T05:45:53.441Z,2.30
2018-01-29T05:48:21.627Z,1.20
2018-01-29T05:50:49.994Z,0.97
2018-01-29T05:53:18.360Z,1.30
2018-01-29T05:55:46.732Z,1.23
2018-01-29T05:58:15.870Z,1.50
2018-01-29T06:00:44.333Z,1.87
2018-01-29T06:03:12.705Z,1.80
2018-01-29T06:05:40.877Z,2.30
2018-01-29T06:08:09.257Z,2.37
2018-01-29T06:10:37.645Z,1.50
2018-01-29T06:13:05.996Z,2.70
2018-01-29T06:15:34.375Z,2.73
2018-01-29T06:18:02.064Z,2.10
2018-01-29T06:20:30.451Z,1.40
2018-01-29T06:22:58.823Z,2.83
2018-01-29T06:25:27.176Z,1.83
2018-01-29T06:27:55.465Z,2.53
2018-01-29T06:30:23.835Z,1.90
2018-01-29T06:32:52.260Z,2.90
2018-01-29T06:35:20.695Z,1.43
2018-01-29T06:37:49.056Z,1.90
2018-01-29T06:40:18.200Z,3.00
2018-01-29T06:42:46.555Z,2.57
2018-01-29T06:45:14.952Z,1.80
2018-01-29T06:47:43.313Z,2.43
2018-01-29T06:50:11.712Z,2.30
2018-01-29T06:52:40.079Z,2.80
2018-01-29T06:55:08.436Z,2.40
2018-01-29T06:57:36.815Z,1.47
2018-01-29T07:00:04.532Z,2.73
2018-01-29T07:02:32.893Z,2.33
2018-01-29T07:05:01.281Z,0.93
2018-01-29T07:07:29.701Z,4.13
2018-01-29T07:09:58.398Z,2.87
2018-01-29T07:12:26.765Z,2.47
2018-01-29T07:14:56.293Z,2.23
2018-01-29T07:17:24.684Z,2.13
2018-01-29T07:19:53.044Z,1.80
2018-01-29T07:22:21.443Z,2.90
2018-01-29T07:24:49.825Z,2.63
2018-01-29T07:27:19.481Z,2.30
2018-01-29T07:29:48.623Z,3.20
2018-01-29T07:32:16.982Z,3.00
2018-01-29T07:34:45.371Z,1.97
2018-01-29T07:37:13.724Z,1.77
2018-01-29T07:39:43.049Z,2.10
2018-01-29T07:42:11.427Z,1.90
2018-01-29T07:44:39.783Z,2.13
2018-01-29T07:47:08.167Z,2.23
2018-01-29T07:49:36.533Z,1.90
2018-01-29T07:52:05.657Z,2.60
2018-01-29T07:54:34.035Z,1.70
2018-01-29T07:57:02.510Z,2.53
2018-01-29T07:59:31.689Z,1.97
2018-01-29T08:02:00.660Z,2.43
2018-01-29T08:04:29.795Z,2.97
2018-01-29T08:06:58.164Z,2.77
2018-01-29T08:09:26.522Z,3.40
2018-01-29T08:11:55.666Z,4.07
2018-01-29T08:14:24.020Z,3.27
2018-01-29T08:16:52.381Z,1.80
2018-01-29T08:19:21.779Z,1.53
2018-01-29T08:21:50.160Z,3.10
2018-01-29T08:24:19.604Z,2.70
2018-01-29T08:26:47.968Z,2.37
2018-01-29T08:29:16.325Z,3.00
2018-01-29T08:31:44.727Z,3.10
2018-01-29T08:34:13.101Z,3.20
2018-01-29T08:36:41.556Z,2.60
2018-01-29T08:39:10.881Z,1.77
2018-01-29T08:41:39.241Z,2.20
2018-01-29T08:44:07.433Z,2.77
2018-01-29T08:46:35.620Z,3.03
2018-01-29T08:49:04.060Z,3.10
2018-01-29T08:51:33.191Z,1.60
2018-01-29T08:54:01.577Z,1.37
2018-01-29T08:56:29.787Z,2.57
2018-01-29T08:58:57.959Z,3.27
2018-01-29T09:01:26.672Z,3.00
2018-01-29T09:03:55.062Z,2.53
2018-01-29T09:06:23.427Z,1.93
2018-01-29T09:08:51.796Z,2.67
2018-01-29T09:11:20.926Z,2.87
2018-01-29T09:13:49.312Z,1.73
2018-01-29T09:16:17.674Z,3.03
2018-01-29T09:18:46.096Z,3.27
2018-01-29T09:21:14.468Z,3.10
2018-01-29T09:23:42.827Z,1.67
2018-01-29T09:26:11.208Z,3.00
2018-01-29T09:28:39.574Z,2.70
2018-01-29T09:31:07.954Z,2.87
2018-01-29T09:33:36.316Z,2.13
2018-01-29T09:36:04.369Z,1.90
2018-01-29T09:38:33.893Z,2.50
2018-01-29T09:41:03.388Z,2.70
2018-01-29T09:43:32.264Z,2.60
2018-01-29T09:46:01.406Z,2.27
2018-01-29T09:48:29.581Z,2.30
2018-01-29T09:50:59.099Z,2.27
2018-01-29T09:53:27.479Z,2.07
2018-01-29T09:55:55.854Z,1.10
2018-01-29T09:58:25.028Z,1.97
2018-01-29T10:00:53.420Z,1.30
2018-01-29T10:03:21.808Z,1.60
2018-01-29T10:05:51.120Z,1.50
2018-01-29T10:08:19.304Z,1.60
2018-01-29T10:10:48.808Z,1.40
2018-01-29T10:13:17.212Z,1.93
2018-01-29T10:15:46.364Z,1.80
2018-01-29T10:18:14.724Z,1.70
2018-01-29T10:20:43.100Z,1.10
2018-01-29T10:23:11.660Z,1.67
2018-01-29T10:25:40.023Z,1.87
2018-01-29T10:28:09.524Z,1.23
2018-01-29T10:30:38.673Z,1.27
2018-01-29T10:33:07.038Z,1.10
2018-01-29T10:35:35.416Z,1.67
2018-01-29T10:38:03.764Z,1.57
2018-01-29T10:40:32.136Z,1.20
2018-01-29T10:43:01.264Z,3.10
2018-01-29T10:45:29.671Z,1.20
2018-01-29T10:47:58.039Z,1.07
2018-01-29T10:50:26.398Z,1.30
2018-01-29T10:52:54.785Z,1.70
2018-01-29T10:55:23.144Z,0.97
2018-01-29T10:57:51.556Z,1.70
2018-01-29T11:00:20.854Z,2.10
2018-01-29T11:02:49.224Z,1.70
2018-01-29T11:05:17.588Z,1.70
2018-01-29T11:07:45.948Z,1.37
2018-01-29T11:10:14.434Z,1.70
2018-01-29T11:12:42.784Z,1.40
2018-01-29T11:15:11.920Z,1.63
2018-01-29T11:17:40.284Z,1.33
2018-01-29T11:20:08.640Z,1.20
2018-01-29T11:22:38.139Z,2.10
2018-01-29T11:25:07.289Z,1.37
2018-01-29T11:27:35.644Z,1.50
2018-01-29T11:30:03.353Z,1.27
2018-01-29T11:32:31.708Z,0.90
2018-01-29T11:35:00.440Z,2.20
2018-01-29T11:37:29.558Z,1.70
2018-01-29T11:39:57.920Z,1.10
2018-01-29T11:42:27.060Z,1.97
2018-01-29T11:44:55.425Z,1.10
2018-01-29T11:47:23.808Z,1.83
2018-01-29T11:49:51.843Z,1.30
2018-01-29T11:52:21.230Z,1.47
2018-01-29T11:54:50.738Z,1.00
2018-01-29T11:57:19.872Z,1.73
2018-01-29T11:59:48.253Z,1.60
2018-01-29T12:02:16.647Z,1.40
2018-01-29T12:04:45.005Z,2.00
2018-01-29T12:07:13.377Z,1.80
2018-01-29T12:09:41.777Z,2.00
2018-01-29T12:12:11.283Z,1.67
2018-01-29T12:14:39.644Z,1.80
2018-01-29T12:17:08.008Z,2.50
2018-01-29T12:19:36.388Z,2.03
2018-01-29T12:22:04.752Z,2.40
2018-01-29T12:24:33.151Z,2.27
2018-01-29T12:27:01.519Z,2.00
2018-01-29T12:29:29.891Z,2.07
2018-01-29T12:31:58.259Z,1.13
2018-01-29T12:34:27.377Z,2.57
2018-01-29T12:36:55.811Z,2.23
2018-01-29T12:39:24.316Z,2.27
2018-01-29T12:41:53.442Z,2.43
2018-01-29T12:44:21.815Z,2.07
2018-01-29T12:46:50.193Z,2.50
2018-01-29T12:49:18.560Z,3.60
2018-01-29T12:51:46.927Z,3.60
2018-01-29T12:54:15.282Z,1.63
2018-01-29T12:56:43.668Z,2.50
2018-01-29T12:59:12.793Z,3.70
2018-01-29T13:01:41.150Z,2.40
2018-01-29T13:04:10.280Z,3.20
2018-01-29T13:06:38.632Z,3.63
2018-01-29T13:09:06.988Z,2.17
2018-01-29T13:11:36.136Z,1.73
2018-01-29T13:14:04.605Z,2.87
2018-01-29T13:16:33.004Z,1.60
2018-01-29T13:19:01.369Z,3.20
2018-01-29T13:21:29.727Z,3.53
2018-01-29T13:23:58.096Z,3.00
2018-01-29T13:26:26.521Z,4.00
2018-01-29T13:28:54.905Z,3.40
2018-01-29T13:31:23.335Z,2.93
2018-01-29T13:33:51.687Z,3.10
2018-01-29T13:36:20.832Z,4.97
2018-01-29T13:38:49.208Z,3.43
2018-01-29T13:41:17.856Z,2.50
2018-01-29T13:43:46.980Z,4.00
2018-01-29T13:46:15.335Z,3.50
2018-01-29T13:48:44.484Z,4.67
2018-01-29T13:51:12.852Z,4.50
2018-01-29T13:53:41.636Z,3.37
2018-01-29T13:56:10.052Z,2.60
2018-01-29T13:58:38.414Z,3.33
2018-01-29T14:01:06.835Z,2.57
2018-01-29T14:03:35.425Z,3.27
2018-01-29T14:06:04.178Z,4.30
2018-01-29T14:08:32.536Z,4.00
2018-01-29T14:11:00.944Z,3.83
2018-01-29T14:13:29.312Z,3.70
2018-01-29T14:15:57.667Z,4.03
2018-01-29T14:18:26.056Z,3.43
2018-01-29T14:20:54.492Z,2.67
2018-01-29T14:23:22.856Z,3.30
2018-01-29T14:25:51.241Z,3.43
2018-01-29T14:28:19.606Z,2.97
2018-01-29T14:30:49.041Z,4.70
2018-01-29T14:33:17.401Z,4.30
2018-01-29T14:35:45.764Z,2.30
2018-01-29T14:38:15.068Z,3.77
2018-01-29T14:40:43.384Z,3.53
2018-01-29T14:43:11.756Z,2.80
2018-01-29T14:45:40.136Z,2.30
2018-01-29T14:48:08.524Z,1.80
2018-01-29T14:50:36.244Z,2.47
2018-01-29T14:53:05.520Z,2.60
2018-01-29T14:55:33.909Z,2.57
2018-01-29T14:58:03.022Z,1.73
2018-01-29T15:00:31.438Z,2.63
2018-01-29T15:02:59.847Z,3.03
2018-01-29T15:05:28.259Z,2.57
2018-01-29T15:07:56.692Z,2.67
2018-01-29T15:10:25.132Z,2.47
2018-01-29T15:12:53.521Z,3.03
2018-01-29T15:15:21.896Z,2.50
2018-01-29T15:17:50.262Z,2.60
2018-01-29T15:20:18.818Z,1.80
2018-01-29T15:22:47.548Z,2.23
2018-01-29T15:25:15.918Z,2.00
2018-01-29T15:27:44.294Z,2.80
2018-01-29T15:30:12.784Z,3.30
2018-01-29T15:32:41.198Z,2.23
2018-01-29T15:35:09.577Z,3.10
2018-01-29T15:37:37.964Z,2.93
2018-01-29T15:40:07.312Z,2.00
2018-01-29T15:42:37.180Z,1.83
2018-01-29T15:45:05.522Z,3.30
2018-01-29T15:47:35.019Z,2.97
2018-01-29T15:50:03.405Z,1.53
2018-01-29T15:52:31.821Z,2.80
2018-01-29T15:55:01.208Z,2.23
2018-01-29T15:57:29.596Z,2.70
2018-01-29T15:59:58.393Z,1.93
2018-01-29T16:02:27.581Z,2.37
2018-01-29T16:04:56.147Z,1.60
2018-01-29T16:07:24.571Z,2.63
2018-01-29T16:09:52.986Z,1.50
2018-01-29T16:12:21.393Z,1.17
2018-01-29T16:14:49.768Z,2.30
2018-01-29T16:17:18.145Z,3.10
2018-01-29T16:19:46.520Z,2.00
2018-01-29T16:22:15.253Z,1.43
2018-01-29T16:24:43.629Z,2.67
2018-01-29T16:27:11.993Z,2.20
2018-01-29T16:29:41.131Z,1.90
2018-01-29T16:32:09.506Z,0.90
2018-01-29T16:34:37.899Z,1.83
2018-01-29T16:37:06.270Z,2.00
2018-01-29T16:39:34.622Z,2.37
2018-01-29T16:42:02.996Z,1.70
2018-01-29T16:44:31.389Z,1.70
2018-01-29T16:46:59.776Z,2.20
2018-01-29T16:49:28.142Z,1.90
2018-01-29T16:51:56.513Z,2.00
2018-01-29T16:54:25.033Z,1.30
2018-01-29T16:56:53.455Z,2.33
2018-01-29T16:59:21.896Z,2.43
2018-01-29T17:01:50.497Z,1.77
2018-01-29T17:04:19.805Z,2.93
2018-01-29T17:06:47.898Z,2.37
2018-01-29T17:09:16.261Z,1.87
2018-01-29T17:11:45.415Z,1.53
2018-01-29T17:14:13.778Z,1.60
2018-01-29T17:16:42.182Z,1.93
2018-01-29T17:19:10.846Z,1.90
2018-01-29T17:21:39.315Z,2.13
2018-01-29T17:24:07.861Z,2.50
2018-01-29T17:26:36.831Z,4.67
2018-01-29T17:29:05.272Z,1.23
2018-01-29T17:31:33.679Z,2.47
2018-01-29T17:34:02.324Z,1.20
2018-01-29T17:36:30.840Z,1.50
2018-01-29T17:38:59.237Z,2.40
2018-01-29T17:41:27.632Z,3.27
2018-01-29T17:43:56.874Z,3.57
2018-01-29T17:46:25.275Z,3.20
2018-01-29T17:48:53.652Z,0.87
2018-01-29T17:51:22.012Z,1.90
2018-01-29T17:53:50.380Z,1.60
2018-01-29T17:56:18.759Z,2.83
2018-01-29T17:58:47.144Z,2.77
2018-01-29T18:01:15.540Z,2.40
2018-01-29T18:03:43.919Z,1.50
2018-01-29T18:06:12.337Z,2.97
2018-01-29T18:08:40.995Z,1.40
2018-01-29T18:11:09.363Z,1.90
2018-01-29T18:13:39.284Z,2.37
2018-01-29T18:16:07.698Z,1.80
2018-01-29T18:18:36.070Z,3.40
2018-01-29T18:21:05.259Z,2.90
2018-01-29T18:23:34.394Z,2.93
2018-01-29T18:26:02.773Z,1.27
2018-01-29T18:28:31.139Z,2.60
2018-01-29T18:30:58.840Z,2.33
2018-01-29T18:33:27.227Z,2.47
2018-01-29T18:35:55.600Z,3.10
2018-01-29T18:38:24.023Z,3.07
2018-01-29T18:40:52.422Z,2.87
2018-01-29T18:43:20.791Z,2.10
2018-01-29T18:45:49.170Z,2.23
2018-01-29T18:48:17.540Z,2.47
2018-01-29T18:50:46.688Z,2.50
2018-01-29T18:53:15.058Z,2.73
2018-01-29T18:55:43.426Z,2.30
2018-01-29T18:58:12.032Z,2.80
2018-01-29T19:00:40.424Z,1.53
2018-01-29T19:03:09.819Z,2.47
2018-01-29T19:05:39.197Z,2.50
2018-01-29T19:08:08.594Z,2.70
2018-01-29T19:10:37.988Z,2.17
2018-01-29T19:13:06.383Z,2.43
2018-01-29T19:15:34.937Z,3.23
2018-01-29T19:18:04.122Z,1.77
2018-01-29T19:20:32.484Z,5.07
2018-01-29T19:23:01.660Z,3.50
2018-01-29T19:25:31.101Z,4.17
2018-01-29T19:27:59.808Z,6.33
2018-01-29T19:30:28.179Z,2.97
2018-01-29T19:32:56.532Z,3.10
2018-01-29T19:35:25.669Z,6.10
2018-01-29T19:37:54.045Z,4.60
2018-01-29T19:40:21.760Z,7.83
2018-01-29T19:42:50.599Z,5.17
2018-01-29T19:45:19.341Z,4.60
2018-01-29T19:47:48.485Z,3.00
2018-01-29T19:50:16.851Z,2.40
2018-01-29T19:52:45.234Z,2.40
2018-01-29T19:55:13.633Z,1.90
2018-01-29T19:57:42.100Z,1.70
2018-01-29T20:00:10.464Z,2.00
2018-01-29T20:02:38.844Z,2.00
2018-01-29T20:05:06.919Z,2.20
2018-01-29T20:07:35.293Z,2.50
2018-01-29T20:10:03.380Z,2.87
2018-01-29T20:12:32.503Z,3.20
2018-01-29T20:15:01.806Z,2.37
2018-01-29T20:17:30.176Z,2.37
2018-01-29T20:19:58.566Z,2.70
2018-01-29T20:22:27.749Z,3.00
2018-01-29T20:24:56.120Z,2.10
2018-01-29T20:27:24.512Z,2.50
2018-01-29T20:29:52.892Z,1.70
2018-01-29T20:32:21.272Z,2.50
2018-01-29T20:34:49.726Z,2.40
2018-01-29T20:37:18.099Z,2.23
2018-01-29T20:39:46.481Z,3.63
2018-01-29T20:42:14.872Z,3.00
2018-01-29T20:44:43.275Z,2.90
2018-01-29T20:47:12.732Z,2.73
2018-01-29T20:49:41.131Z,2.50
2018-01-29T20:52:09.549Z,2.60
2018-01-29T20:54:37.924Z,2.77
2018-01-29T20:57:07.065Z,2.50
2018-01-29T20:59:35.469Z,2.80
2018-01-29T21:02:03.840Z,3.20
2018-01-29T21:04:32.192Z,2.90
2018-01-29T21:07:00.570Z,2.70
2018-01-29T21:09:28.596Z,2.90
2018-01-29T21:11:58.109Z,2.73
2018-01-29T21:14:26.496Z,3.23
2018-01-29T21:16:54.893Z,2.70
2018-01-29T21:19:23.268Z,3.13
2018-01-29T21:21:51.659Z,2.80
2018-01-29T21:24:20.103Z,3.30
2018-01-29T21:26:48.481Z,3.10
2018-01-29T21:29:16.864Z,2.67
2018-01-29T21:31:45.246Z,3.40
2018-01-29T21:34:13.620Z,4.40
2018-01-29T21:36:42.021Z,4.30
2018-01-29T21:39:10.044Z,3.10
2018-01-29T21:41:38.403Z,4.17
2018-01-29T21:44:06.790Z,4.10
2018-01-29T21:46:35.938Z,4.07
2018-01-29T21:49:04.319Z,2.90
2018-01-29T21:51:32.681Z,2.73
2018-01-29T21:54:01.244Z,2.97
2018-01-29T21:56:30.383Z,3.37
2018-01-29T21:58:58.739Z,3.23
2018-01-29T22:01:27.347Z,2.83
2018-01-29T22:03:55.748Z,2.67
2018-01-29T22:06:24.116Z,3.00
2018-01-29T22:08:53.449Z,3.33
2018-01-29T22:11:22.585Z,2.80
2018-01-29T22:13:50.632Z,3.17
2018-01-29T22:16:19.766Z,3.53
2018-01-29T22:18:48.141Z,3.63
2018-01-29T22:21:16.575Z,2.43
2018-01-29T22:23:44.987Z,3.27
2018-01-29T22:26:13.468Z,2.73
2018-01-29T22:28:41.836Z,4.03
2018-01-29T22:31:10.201Z,3.17
2018-01-29T22:33:39.361Z,4.43
2018-01-29T22:36:07.737Z,4.50
2018-01-29T22:38:36.123Z,3.30
2018-01-29T22:41:03.834Z,3.20
2018-01-29T22:43:32.224Z,3.57
2018-01-29T22:46:00.604Z,4.10
2018-01-29T22:48:28.965Z,3.97
2018-01-29T22:50:57.635Z,3.87
2018-01-29T22:53:26.767Z,3.70
2018-01-29T22:55:55.126Z,3.70
2018-01-29T22:58:23.498Z,5.33
2018-01-29T23:00:51.875Z,4.77
2018-01-29T23:03:20.251Z,5.33
2018-01-29T23:05:48.612Z,3.90
2018-01-29T23:08:17.404Z,4.73
2018-01-29T23:10:46.552Z,4.00
2018-01-29T23:13:14.915Z,4.00
2018-01-29T23:15:43.295Z,4.37
2018-01-29T23:18:11.668Z,4.53
2018-01-29T23:20:40.043Z,4.97
2018-01-29T23:23:08.412Z,6.90
2018-01-29T23:25:36.779Z,5.20
2018-01-29T23:28:05.142Z,4.90
2018-01-29T23:30:34.306Z,3.80
2018-01-29T23:33:02.677Z,4.80
2018-01-29T23:35:31.056Z,4.90
2018-01-29T23:37:59.432Z,5.27
2018-01-29T23:40:28.566Z,6.00
2018-01-29T23:42:57.706Z,4.53
2018-01-29T23:45:26.092Z,4.77
2018-01-29T23:47:54.459Z,4.53
2018-01-29T23:50:22.820Z,5.10
2018-01-29T23:52:51.556Z,5.20
2018-01-29T23:55:19.948Z,5.33
2018-01-29T23:57:48.320Z,5.00
